sensor_id;sensor_type;location;lat;lon;timestamp;P1;durP1;ratioP1;P2;durP2;ratioP2
32427;SDS011;18882;50.952;4.366;2024-03-23T00:55:28;12.50;;;3.50;;
32427;SDS011;18882;50.952;4.366;2024-03-23T01:02:14;11.60;;;3.60;;
32427;SDS011;18882;50.952;4.366;2024-03-23T01:05:29;11.02;;;2.75;;
32427;SDS011;18882;50.952;4.366;2024-03-23T01:09:04;12.57;;;3.78;;
32427;SDS011;18882;50.952;4.366;2024-03-23T01:12:44;9.00;;;3.10;;
32427;SDS011;18882;50.952;4.366;2024-03-23T01:15:53;14.57;;;3.13;;
32427;SDS011;18882;50.952;4.366;2024-03-23T01:18:58;16.17;;;3.83;;
32427;SDS011;18882;50.952;4.366;2024-03-23T01:25:13;15.45;;;5.85;;
32427;SDS011;18882;50.952;4.366;2024-03-23T01:28:42;16.95;;;6.18;;
32427;SDS011;18882;50.952;4.366;2024-03-23T01:46:02;17.05;;;4.28;;
32427;SDS011;18882;50.952;4.366;2024-03-23T01:59:26;13.65;;;4.60;;
32427;SDS011;18882;50.952;4.366;2024-03-23T02:02:52;17.00;;;4.68;;
32427;SDS011;18882;50.952;4.366;2024-03-23T02:05:47;19.70;;;4.65;;
32427;SDS011;18882;50.952;4.366;2024-03-23T02:08:46;16.58;;;5.20;;
32427;SDS011;18882;50.952;4.366;2024-03-23T02:12:39;16.38;;;5.10;;
32427;SDS011;18882;50.952;4.366;2024-03-23T02:15:55;16.27;;;5.93;;
32427;SDS011;18882;50.952;4.366;2024-03-23T02:18:44;28.95;;;6.20;;
32427;SDS011;18882;50.952;4.366;2024-03-23T02:24:58;24.33;;;6.60;;
32427;SDS011;18882;50.952;4.366;2024-03-23T02:28:04;23.20;;;6.55;;
32427;SDS011;18882;50.952;4.366;2024-03-23T02:31:27;20.52;;;6.60;;
32427;SDS011;18882;50.952;4.366;2024-03-23T02:34:06;25.15;;;5.90;;
32427;SDS011;18882;50.952;4.366;2024-03-23T02:37:16;30.20;;;6.53;;
32427;SDS011;18882;50.952;4.366;2024-03-23T02:44:01;19.58;;;6.07;;
32427;SDS011;18882;50.952;4.366;2024-03-23T02:50:13;23.88;;;5.38;;
32427;SDS011;18882;50.952;4.366;2024-03-23T02:53:07;21.17;;;6.47;;
32427;SDS011;18882;50.952;4.366;2024-03-23T02:56:41;23.10;;;5.60;;
32427;SDS011;18882;50.952;4.366;2024-03-23T03:00:13;27.55;;;5.70;;
32427;SDS011;18882;50.952;4.366;2024-03-23T03:03:40;22.35;;;5.28;;
32427;SDS011;18882;50.952;4.366;2024-03-23T03:09:37;25.73;;;6.00;;
32427;SDS011;18882;50.952;4.366;2024-03-23T03:12:33;31.55;;;6.30;;
32427;SDS011;18882;50.952;4.366;2024-03-23T03:15:21;15.98;;;5.60;;
32427;SDS011;18882;50.952;4.366;2024-03-23T03:18:25;20.70;;;6.05;;
32427;SDS011;18882;50.952;4.366;2024-03-23T03:21:17;25.35;;;6.63;;
32427;SDS011;18882;50.952;4.366;2024-03-23T07:23:16;8.85;;;1.00;;
32427;SDS011;18882;50.952;4.366;2024-03-23T07:25:45;6.20;;;1.23;;
32427;SDS011;18882;50.952;4.366;2024-03-23T08:34:53;10.60;;;1.60;;
32427;SDS011;18882;50.952;4.366;2024-03-23T08:37:24;9.57;;;1.40;;
32427;SDS011;18882;50.952;4.366;2024-03-23T08:40:14;10.40;;;1.42;;
32427;SDS011;18882;50.952;4.366;2024-03-23T08:43:11;10.60;;;1.88;;
32427;SDS011;18882;50.952;4.366;2024-03-23T14:09:40;10.43;;;2.72;;
32427;SDS011;18882;50.952;4.366;2024-03-23T14:12:12;5.03;;;1.00;;
32427;SDS011;18882;50.952;4.366;2024-03-23T14:14:41;6.47;;;1.33;;
32427;SDS011;18882;50.952;4.366;2024-03-23T14:17:18;3.97;;;1.13;;
32427;SDS011;18882;50.952;4.366;2024-03-23T14:19:45;3.35;;;1.20;;
32427;SDS011;18882;50.952;4.366;2024-03-23T14:22:34;4.30;;;0.82;;
32427;SDS011;18882;50.952;4.366;2024-03-23T15:56:15;3.17;;;0.88;;
32427;SDS011;18882;50.952;4.366;2024-03-23T15:58:43;1.33;;;0.82;;
32427;SDS011;18882;50.952;4.366;2024-03-23T16:01:09;6.30;;;0.80;;
32427;SDS011;18882;50.952;4.366;2024-03-23T16:03:50;5.50;;;1.17;;
32427;SDS011;18882;50.952;4.366;2024-03-23T16:06:29;3.33;;;0.90;;
32427;SDS011;18882;50.952;4.366;2024-03-23T16:08:57;10.32;;;1.10;;
32427;SDS011;18882;50.952;4.366;2024-03-23T16:11:27;5.78;;;0.93;;
32427;SDS011;18882;50.952;4.366;2024-03-23T16:13:56;6.13;;;0.90;;
32427;SDS011;18882;50.952;4.366;2024-03-23T16:16:26;2.90;;;0.82;;
32427;SDS011;18882;50.952;4.366;2024-03-23T16:18:55;3.53;;;0.80;;
32427;SDS011;18882;50.952;4.366;2024-03-23T16:21:33;5.32;;;1.00;;
32427;SDS011;18882;50.952;4.366;2024-03-23T16:24:13;6.30;;;0.90;;
32427;SDS011;18882;50.952;4.366;2024-03-23T16:26:49;1.77;;;0.70;;
32427;SDS011;18882;50.952;4.366;2024-03-23T16:29:17;5.53;;;1.10;;
32427;SDS011;18882;50.952;4.366;2024-03-23T20:27:37;3.97;;;2.60;;
32427;SDS011;18882;50.952;4.366;2024-03-23T20:30:07;6.30;;;1.50;;
32427;SDS011;18882;50.952;4.366;2024-03-23T20:35:21;5.63;;;1.60;;
32427;SDS011;18882;50.952;4.366;2024-03-23T20:37:56;6.78;;;1.30;;
32427;SDS011;18882;50.952;4.366;2024-03-23T20:40:24;4.28;;;1.13;;
32427;SDS011;18882;50.952;4.366;2024-03-23T20:42:51;2.95;;;1.15;;
32427;SDS011;18882;50.952;4.366;2024-03-23T20:45:29;5.47;;;1.48;;
32427;SDS011;18882;50.952;4.366;2024-03-23T20:48:15;7.30;;;1.58;;
32427;SDS011;18882;50.952;4.366;2024-03-23T20:50:59;3.40;;;1.40;;
32427;SDS011;18882;50.952;4.366;2024-03-23T20:53:29;2.63;;;1.40;;
32427;SDS011;18882;50.952;4.366;2024-03-23T20:56:13;7.57;;;1.58;;
32427;SDS011;18882;50.952;4.366;2024-03-23T20:59:00;6.78;;;1.35;;
32427;SDS011;18882;50.952;4.366;2024-03-23T21:01:32;6.75;;;1.63;;
32427;SDS011;18882;50.952;4.366;2024-03-23T21:06:41;6.80;;;1.70;;
32427;SDS011;18882;50.952;4.366;2024-03-23T21:09:10;4.55;;;1.20;;
